sensor_id;sensor_type;location;lat;lon;timestamp;pressure;altitude;pressure_sealevel;temperature;humidity
22582;BME280;47125;48.542;9.052;2023-08-24T00:07:13;96271.34;;;25.52;nan
22582;BME280;47125;48.542;9.052;2023-08-24T00:17:17;96267.50;;;25.18;nan
22582;BME280;47125;48.542;9.052;2023-08-24T00:27:20;96267.78;;;25.60;nan
22582;BME280;47125;48.542;9.052;2023-08-24T00:37:24;96252.22;;;25.35;nan
22582;BME280;47125;48.542;9.052;2023-08-24T00:47:27;96247.41;;;25.23;nan
22582;BME280;47125;48.542;9.052;2023-08-24T00:57:32;96236.97;;;25.16;nan
22582;BME280;47125;48.542;9.052;2023-08-24T01:07:37;96223.16;;;25.04;nan
22582;BME280;47125;48.542;9.052;2023-08-24T01:17:42;96222.03;;;24.97;nan
22582;BME280;47125;48.542;9.052;2023-08-24T01:27:46;96215.13;;;24.91;nan
22582;BME280;47125;48.542;9.052;2023-08-24T01:48:54;96205.16;;;24.86;nan
22582;BME280;47125;48.542;9.052;2023-08-24T01:58:57;96186.34;;;24.67;nan
22582;BME280;47125;48.542;9.052;2023-08-24T02:09:00;96195.34;;;24.59;nan
22582;BME280;47125;48.542;9.052;2023-08-24T02:19:03;96182.34;;;24.82;nan
22582;BME280;47125;48.542;9.052;2023-08-24T02:29:07;96165.13;;;24.56;nan
22582;BME280;47125;48.542;9.052;2023-08-24T02:39:10;96172.22;;;24.57;nan
22582;BME280;47125;48.542;9.052;2023-08-24T02:49:14;96173.97;;;24.36;nan
22582;BME280;47125;48.542;9.052;2023-08-24T02:59:16;96166.91;;;24.18;nan
22582;BME280;47125;48.542;9.052;2023-08-24T03:09:21;96170.75;;;24.34;nan
22582;BME280;47125;48.542;9.052;2023-08-24T03:19:23;96168.47;;;24.19;nan
22582;BME280;47125;48.542;9.052;2023-08-24T03:29:27;96151.25;;;24.01;nan
22582;BME280;47125;48.542;9.052;2023-08-24T03:39:30;96146.94;;;24.08;nan
22582;BME280;47125;48.542;9.052;2023-08-24T03:49:34;96135.81;;;23.79;nan
22582;BME280;47125;48.542;9.052;2023-08-24T03:59:36;96133.03;;;23.71;nan
22582;BME280;47125;48.542;9.052;2023-08-24T04:09:40;96121.38;;;23.79;nan
22582;BME280;47125;48.542;9.052;2023-08-24T04:19:43;96109.94;;;23.68;nan
22582;BME280;47125;48.542;9.052;2023-08-24T04:29:47;96115.56;;;23.72;nan
22582;BME280;47125;48.542;9.052;2023-08-24T04:39:50;96118.47;;;23.84;nan
22582;BME280;47125;48.542;9.052;2023-08-24T04:49:53;96093.47;;;23.82;nan
22582;BME280;47125;48.542;9.052;2023-08-24T04:59:57;96080.63;;;23.82;nan
22582;BME280;47125;48.542;9.052;2023-08-24T05:10:00;96090.56;;;23.87;nan
22582;BME280;47125;48.542;9.052;2023-08-24T05:20:05;96087.03;;;23.95;nan
22582;BME280;47125;48.542;9.052;2023-08-24T05:30:09;96081.59;;;23.95;nan
22582;BME280;47125;48.542;9.052;2023-08-24T05:40:12;96076.75;;;23.92;nan
22582;BME280;47125;48.542;9.052;2023-08-24T05:50:16;96075.34;;;24.03;nan
22582;BME280;47125;48.542;9.052;2023-08-24T06:00:19;96075.19;;;23.91;nan
22582;BME280;47125;48.542;9.052;2023-08-24T06:10:25;96067.16;;;24.03;nan
22582;BME280;47125;48.542;9.052;2023-08-24T06:20:28;96066.56;;;24.15;nan
22582;BME280;47125;48.542;9.052;2023-08-24T06:30:32;96062.19;;;24.48;nan
22582;BME280;47125;48.542;9.052;2023-08-24T06:40:40;96067.97;;;24.38;nan
22582;BME280;47125;48.542;9.052;2023-08-24T06:50:44;96075.34;;;24.46;nan
22582;BME280;47125;48.542;9.052;2023-08-24T07:00:46;96090.75;;;24.59;nan
22582;BME280;47125;48.542;9.052;2023-08-24T07:20:53;96110.66;;;24.68;nan
22582;BME280;47125;48.542;9.052;2023-08-24T07:30:56;96090.88;;;24.88;nan
22582;BME280;47125;48.542;9.052;2023-08-24T07:41:00;96085.09;;;24.90;nan
22582;BME280;47125;48.542;9.052;2023-08-24T07:51:02;96106.59;;;25.08;nan
22582;BME280;47125;48.542;9.052;2023-08-24T08:01:06;96089.53;;;25.03;nan
22582;BME280;47125;48.542;9.052;2023-08-24T08:11:09;96099.16;;;25.09;nan
22582;BME280;47125;48.542;9.052;2023-08-24T08:21:14;96109.31;;;25.08;nan
22582;BME280;47125;48.542;9.052;2023-08-24T08:31:22;96108.50;;;25.46;nan
22582;BME280;47125;48.542;9.052;2023-08-24T08:41:27;96119.06;;;25.64;nan
22582;BME280;47125;48.542;9.052;2023-08-24T08:51:30;96100.91;;;25.89;nan
22582;BME280;47125;48.542;9.052;2023-08-24T09:01:34;96085.41;;;26.14;nan
22582;BME280;47125;48.542;9.052;2023-08-24T09:11:37;96076.56;;;26.38;nan
22582;BME280;47125;48.542;9.052;2023-08-24T09:21:42;96060.00;;;26.67;nan
22582;BME280;47125;48.542;9.052;2023-08-24T09:31:44;96047.31;;;27.07;nan
22582;BME280;47125;48.542;9.052;2023-08-24T09:41:50;96038.22;;;27.27;nan
22582;BME280;47125;48.542;9.052;2023-08-24T09:51:52;96016.84;;;27.69;nan
22582;BME280;47125;48.542;9.052;2023-08-24T10:01:59;95989.88;;;27.99;nan
22582;BME280;47125;48.542;9.052;2023-08-24T10:12:03;95984.06;;;28.28;nan
22582;BME280;47125;48.542;9.052;2023-08-24T10:22:08;95964.66;;;28.65;nan
22582;BME280;47125;48.542;9.052;2023-08-24T10:32:11;95951.09;;;28.72;nan
22582;BME280;47125;48.542;9.052;2023-08-24T10:42:15;95941.03;;;29.26;nan
22582;BME280;47125;48.542;9.052;2023-08-24T10:52:18;95928.53;;;29.64;nan
22582;BME280;47125;48.542;9.052;2023-08-24T11:02:22;95927.72;;;29.98;nan
22582;BME280;47125;48.542;9.052;2023-08-24T11:12:25;95903.94;;;30.32;nan
22582;BME280;47125;48.542;9.052;2023-08-24T11:22:31;95904.00;;;31.00;nan
22582;BME280;47125;48.542;9.052;2023-08-24T11:32:34;95880.75;;;31.27;nan
22582;BME280;47125;48.542;9.052;2023-08-24T11:42:38;95869.97;;;31.75;nan
22582;BME280;47125;48.542;9.052;2023-08-24T11:52:41;95875.72;;;32.26;nan
22582;BME280;47125;48.542;9.052;2023-08-24T12:02:45;95869.44;;;32.69;nan
22582;BME280;47125;48.542;9.052;2023-08-24T12:12:48;95848.53;;;33.26;nan
22582;BME280;47125;48.542;9.052;2023-08-24T12:22:53;95840.03;;;33.59;nan
22582;BME280;47125;48.542;9.052;2023-08-24T12:32:55;95819.56;;;33.89;nan
22582;BME280;47125;48.542;9.052;2023-08-24T12:42:59;95807.28;;;33.90;nan
22582;BME280;47125;48.542;9.052;2023-08-24T12:53:02;95781.19;;;33.94;nan
22582;BME280;47125;48.542;9.052;2023-08-24T13:03:08;95769.34;;;34.29;nan
22582;BME280;47125;48.542;9.052;2023-08-24T13:13:11;95756.19;;;33.76;nan
22582;BME280;47125;48.542;9.052;2023-08-24T13:23:15;95726.88;;;32.86;nan
22582;BME280;47125;48.542;9.052;2023-08-24T13:33:17;95730.53;;;33.04;nan
22582;BME280;47125;48.542;9.052;2023-08-24T13:43:22;95703.16;;;33.85;nan
22582;BME280;47125;48.542;9.052;2023-08-24T13:53:24;95678.75;;;33.01;nan
22582;BME280;47125;48.542;9.052;2023-08-24T14:03:28;95683.44;;;32.93;nan
22582;BME280;47125;48.542;9.052;2023-08-24T14:13:32;95678.47;;;33.31;nan
22582;BME280;47125;48.542;9.052;2023-08-24T14:23:35;95675.78;;;33.52;nan
22582;BME280;47125;48.542;9.052;2023-08-24T14:33:38;95687.38;;;32.96;nan
22582;BME280;47125;48.542;9.052;2023-08-24T14:43:42;95682.94;;;32.70;nan
22582;BME280;47125;48.542;9.052;2023-08-24T14:53:44;95691.97;;;32.63;nan
22582;BME280;47125;48.542;9.052;2023-08-24T15:03:48;95695.34;;;32.39;nan
22582;BME280;47125;48.542;9.052;2023-08-24T15:13:51;95713.28;;;32.08;nan
22582;BME280;47125;48.542;9.052;2023-08-24T15:23:55;95736.13;;;31.02;nan
22582;BME280;47125;48.542;9.052;2023-08-24T15:33:58;95749.31;;;30.89;nan
22582;BME280;47125;48.542;9.052;2023-08-24T15:44:02;95716.28;;;30.14;nan
22582;BME280;47125;48.542;9.052;2023-08-24T15:54:04;95715.06;;;30.12;nan
22582;BME280;47125;48.542;9.052;2023-08-24T16:04:08;95716.41;;;29.98;nan
22582;BME280;47125;48.542;9.052;2023-08-24T16:14:11;95712.69;;;29.87;nan
22582;BME280;47125;48.542;9.052;2023-08-24T16:24:15;95713.25;;;29.16;nan
22582;BME280;47125;48.542;9.052;2023-08-24T16:34:18;95733.16;;;28.90;nan
22582;BME280;47125;48.542;9.052;2023-08-24T16:44:21;95790.53;;;29.46;nan
22582;BME280;47125;48.542;9.052;2023-08-24T16:54:24;95799.13;;;29.44;nan
22582;BME280;47125;48.542;9.052;2023-08-24T17:04:28;95775.88;;;28.53;nan
22582;BME280;47125;48.542;9.052;2023-08-24T17:14:30;95777.31;;;28.97;nan
22582;BME280;47125;48.542;9.052;2023-08-24T17:24:34;95783.69;;;29.21;nan
22582;BME280;47125;48.542;9.052;2023-08-24T17:34:37;95783.59;;;29.17;nan
22582;BME280;47125;48.542;9.052;2023-08-24T17:44:41;95797.88;;;29.04;nan
22582;BME280;47125;48.542;9.052;2023-08-24T17:54:44;95746.53;;;29.11;nan
22582;BME280;47125;48.542;9.052;2023-08-24T18:04:47;95676.13;;;28.87;nan
22582;BME280;47125;48.542;9.052;2023-08-24T18:14:50;95676.81;;;28.81;nan
22582;BME280;47125;48.542;9.052;2023-08-24T18:24:54;95681.72;;;28.72;nan
22582;BME280;47125;48.542;9.052;2023-08-24T18:34:57;95715.06;;;28.55;nan
22582;BME280;47125;48.542;9.052;2023-08-24T18:45:01;95846.41;;;27.34;nan
22582;BME280;47125;48.542;9.052;2023-08-24T18:55:03;95906.88;;;27.38;nan
22582;BME280;47125;48.542;9.052;2023-08-24T19:05:08;96022.66;;;26.62;nan
22582;BME280;47125;48.542;9.052;2023-08-24T19:15:11;96128.66;;;25.50;nan
22582;BME280;47125;48.542;9.052;2023-08-24T19:25:15;96051.50;;;25.65;nan
22582;BME280;47125;48.542;9.052;2023-08-24T19:35:18;95990.81;;;25.34;nan
22582;BME280;47125;48.542;9.052;2023-08-24T19:45:22;95994.63;;;25.91;nan
22582;BME280;47125;48.542;9.052;2023-08-24T19:55:25;95855.31;;;25.24;nan
22582;BME280;47125;48.542;9.052;2023-08-24T20:05:29;95801.63;;;25.61;nan
22582;BME280;47125;48.542;9.052;2023-08-24T20:15:35;95827.41;;;24.68;nan
22582;BME280;47125;48.542;9.052;2023-08-24T20:25:39;95831.66;;;25.07;nan
22582;BME280;47125;48.542;9.052;2023-08-24T20:35:43;95812.47;;;24.95;nan
22582;BME280;47125;48.542;9.052;2023-08-24T20:45:46;95794.72;;;24.22;nan
22582;BME280;47125;48.542;9.052;2023-08-24T20:55:49;95790.94;;;23.51;nan
22582;BME280;47125;48.542;9.052;2023-08-24T21:05:57;95793.97;;;24.13;nan
22582;BME280;47125;48.542;9.052;2023-08-24T21:16:01;95781.84;;;23.85;nan
22582;BME280;47125;48.542;9.052;2023-08-24T21:26:07;95821.09;;;24.01;nan
22582;BME280;47125;48.542;9.052;2023-08-24T21:36:09;95826.91;;;23.99;nan
22582;BME280;47125;48.542;9.052;2023-08-24T21:46:15;95878.59;;;23.87;nan
22582;BME280;47125;48.542;9.052;2023-08-24T21:56:18;95833.56;;;23.64;nan
22582;BME280;47125;48.542;9.052;2023-08-24T22:06:22;95811.31;;;23.28;nan
22582;BME280;47125;48.542;9.052;2023-08-24T22:16:28;95815.59;;;23.63;nan
22582;BME280;47125;48.542;9.052;2023-08-24T22:26:32;95832.91;;;23.58;nan
22582;BME280;47125;48.542;9.052;2023-08-24T22:36:34;95801.69;;;23.39;nan
22582;BME280;47125;48.542;9.052;2023-08-24T22:46:38;95802.94;;;23.67;nan
22582;BME280;47125;48.542;9.052;2023-08-24T22:56:41;95806.63;;;23.54;nan
22582;BME280;47125;48.542;9.052;2023-08-24T23:06:46;95815.94;;;23.53;nan
22582;BME280;47125;48.542;9.052;2023-08-24T23:16:49;95811.78;;;23.47;nan
22582;BME280;47125;48.542;9.052;2023-08-24T23:26:53;95811.13;;;23.50;nan
22582;BME280;47125;48.542;9.052;2023-08-24T23:36:56;95815.94;;;23.36;nan
22582;BME280;47125;48.542;9.052;2023-08-24T23:46:59;95820.25;;;23.20;nan
22582;BME280;47125;48.542;9.052;2023-08-24T23:57:02;95817.38;;;23.08;nan
